sensor_id;sensor_type;location;lat;lon;timestamp;pressure;altitude;pressure_sealevel;temperature;humidity
23589;BME280;11972;48.078;11.876;2023-02-23T00:00:27;95011.66;;;4.81;100.00
23589;BME280;11972;48.078;11.876;2023-02-23T00:04:28;95007.09;;;4.83;100.00
23589;BME280;11972;48.078;11.876;2023-02-23T00:08:28;95013.66;;;4.87;100.00
23589;BME280;11972;48.078;11.876;2023-02-23T00:12:29;95010.75;;;4.90;100.00
23589;BME280;11972;48.078;11.876;2023-02-23T00:16:29;95012.06;;;4.94;100.00
23589;BME280;11972;48.078;11.876;2023-02-23T00:20:30;95011.41;;;5.01;100.00
23589;BME280;11972;48.078;11.876;2023-02-23T00:24:30;95013.06;;;5.10;100.00
23589;BME280;11972;48.078;11.876;2023-02-23T00:28:31;95009.81;;;5.16;100.00
23589;BME280;11972;48.078;11.876;2023-02-23T00:32:31;95014.06;;;5.17;100.00
23589;BME280;11972;48.078;11.876;2023-02-23T00:36:33;95014.72;;;5.19;100.00
23589;BME280;11972;48.078;11.876;2023-02-23T00:40:34;95011.75;;;5.22;100.00
23589;BME280;11972;48.078;11.876;2023-02-23T00:44:34;95023.91;;;5.23;100.00
23589;BME280;11972;48.078;11.876;2023-02-23T00:48:35;95017.34;;;5.27;100.00
23589;BME280;11972;48.078;11.876;2023-02-23T00:52:35;95011.78;;;5.30;100.00
23589;BME280;11972;48.078;11.876;2023-02-23T00:56:35;95008.66;;;5.35;100.00
23589;BME280;11972;48.078;11.876;2023-02-23T01:00:39;95012.94;;;5.44;100.00
23589;BME280;11972;48.078;11.876;2023-02-23T01:04:41;95008.53;;;5.44;100.00
23589;BME280;11972;48.078;11.876;2023-02-23T01:08:44;95017.69;;;5.40;100.00
23589;BME280;11972;48.078;11.876;2023-02-23T01:12:46;95012.13;;;5.35;100.00
23589;BME280;11972;48.078;11.876;2023-02-23T01:16:47;95011.13;;;5.36;100.00
23589;BME280;11972;48.078;11.876;2023-02-23T01:20:47;95016.38;;;5.36;100.00
23589;BME280;11972;48.078;11.876;2023-02-23T01:24:49;95018.00;;;5.37;100.00
23589;BME280;11972;48.078;11.876;2023-02-23T01:28:51;95013.75;;;5.36;100.00
23589;BME280;11972;48.078;11.876;2023-02-23T01:32:52;95012.44;;;5.40;100.00
23589;BME280;11972;48.078;11.876;2023-02-23T01:36:52;95017.69;;;5.40;100.00
23589;BME280;11972;48.078;11.876;2023-02-23T01:40:53;95009.16;;;5.38;100.00
23589;BME280;11972;48.078;11.876;2023-02-23T01:45:35;95008.19;;;5.31;100.00
23589;BME280;11972;48.078;11.876;2023-02-23T01:49:36;95004.91;;;5.29;100.00
23589;BME280;11972;48.078;11.876;2023-02-23T01:53:47;95011.44;;;5.33;100.00
23589;BME280;11972;48.078;11.876;2023-02-23T01:57:53;95012.44;;;5.32;100.00
23589;BME280;11972;48.078;11.876;2023-02-23T02:01:55;95005.41;;;5.33;100.00
23589;BME280;11972;48.078;11.876;2023-02-23T02:05:56;94999.34;;;5.40;100.00
23589;BME280;11972;48.078;11.876;2023-02-23T02:09:58;94997.38;;;5.51;100.00
23589;BME280;11972;48.078;11.876;2023-02-23T02:14:17;94996.56;;;5.58;100.00
23589;BME280;11972;48.078;11.876;2023-02-23T02:32:03;94979.41;;;5.56;100.00
23589;BME280;11972;48.078;11.876;2023-02-23T02:44:58;94984.94;;;5.53;100.00
23589;BME280;11972;48.078;11.876;2023-02-23T02:49:17;94984.94;;;5.44;100.00
23589;BME280;11972;48.078;11.876;2023-02-23T02:53:40;94994.75;;;5.34;100.00
23589;BME280;11972;48.078;11.876;2023-02-23T02:57:44;94989.19;;;5.29;100.00
23589;BME280;11972;48.078;11.876;2023-02-23T03:01:45;94991.81;;;5.29;100.00
23589;BME280;11972;48.078;11.876;2023-02-23T03:06:04;94995.75;;;5.33;100.00
23589;BME280;11972;48.078;11.876;2023-02-23T03:20:02;95012.47;;;5.57;100.00
23589;BME280;11972;48.078;11.876;2023-02-23T03:24:37;95003.28;;;5.69;100.00
23589;BME280;11972;48.078;11.876;2023-02-23T03:33:47;95011.94;;;5.86;100.00
23589;BME280;11972;48.078;11.876;2023-02-23T03:38:21;95003.28;;;5.93;100.00
23589;BME280;11972;48.078;11.876;2023-02-23T03:42:42;94998.69;;;6.04;100.00
23589;BME280;11972;48.078;11.876;2023-02-23T03:47:03;95007.53;;;6.03;100.00
23589;BME280;11972;48.078;11.876;2023-02-23T03:51:25;95009.00;;;6.05;100.00
23589;BME280;11972;48.078;11.876;2023-02-23T03:55:50;95002.44;;;6.09;100.00
23589;BME280;11972;48.078;11.876;2023-02-23T04:00:19;95000.78;;;6.08;100.00
23589;BME280;11972;48.078;11.876;2023-02-23T04:04:40;95007.53;;;6.11;100.00
23589;BME280;11972;48.078;11.876;2023-02-23T04:09:02;95005.88;;;6.18;100.00
23589;BME280;11972;48.078;11.876;2023-02-23T04:13:25;95008.13;;;6.21;100.00
23589;BME280;11972;48.078;11.876;2023-02-23T04:17:27;95004.38;;;6.24;100.00
23589;BME280;11972;48.078;11.876;2023-02-23T04:21:28;95010.75;;;6.29;100.00
23589;BME280;11972;48.078;11.876;2023-02-23T04:25:29;95008.44;;;6.34;100.00
23589;BME280;11972;48.078;11.876;2023-02-23T04:29:29;95015.63;;;6.40;100.00
23589;BME280;11972;48.078;11.876;2023-02-23T04:33:30;95014.31;;;6.44;100.00
23589;BME280;11972;48.078;11.876;2023-02-23T04:37:30;95015.59;;;6.49;100.00
23589;BME280;11972;48.078;11.876;2023-02-23T04:41:30;95013.66;;;6.51;100.00
23589;BME280;11972;48.078;11.876;2023-02-23T04:45:32;95012.69;;;6.43;100.00
23589;BME280;11972;48.078;11.876;2023-02-23T04:49:32;95022.88;;;6.38;100.00
23589;BME280;11972;48.078;11.876;2023-02-23T04:53:33;95018.91;;;6.42;100.00
23589;BME280;11972;48.078;11.876;2023-02-23T04:57:33;95021.38;;;6.44;100.00
23589;BME280;11972;48.078;11.876;2023-02-23T05:01:34;95019.22;;;6.47;100.00
23589;BME280;11972;48.078;11.876;2023-02-23T05:05:36;95016.28;;;6.51;100.00
23589;BME280;11972;48.078;11.876;2023-02-23T05:09:37;95025.44;;;6.55;100.00
23589;BME280;11972;48.078;11.876;2023-02-23T05:13:37;95028.69;;;6.57;100.00
23589;BME280;11972;48.078;11.876;2023-02-23T05:17:39;95014.44;;;6.59;100.00
23589;BME280;11972;48.078;11.876;2023-02-23T05:21:42;95024.56;;;6.62;100.00
23589;BME280;11972;48.078;11.876;2023-02-23T05:25:43;95019.78;;;6.66;100.00
23589;BME280;11972;48.078;11.876;2023-02-23T05:29:44;95012.25;;;6.71;100.00
23589;BME280;11972;48.078;11.876;2023-02-23T05:33:44;95011.41;;;6.70;100.00
23589;BME280;11972;48.078;11.876;2023-02-23T05:37:44;95014.22;;;6.69;100.00
23589;BME280;11972;48.078;11.876;2023-02-23T05:41:45;95016.50;;;6.72;100.00
23589;BME280;11972;48.078;11.876;2023-02-23T05:45:45;95027.63;;;6.74;100.00
23589;BME280;11972;48.078;11.876;2023-02-23T05:49:46;95012.72;;;6.75;100.00
23589;BME280;11972;48.078;11.876;2023-02-23T05:53:46;95023.69;;;6.78;100.00
23589;BME280;11972;48.078;11.876;2023-02-23T05:57:47;95013.19;;;6.78;100.00
23589;BME280;11972;48.078;11.876;2023-02-23T06:01:47;95018.44;;;6.78;100.00
23589;BME280;11972;48.078;11.876;2023-02-23T06:05:52;95025.34;;;6.79;100.00
23589;BME280;11972;48.078;11.876;2023-02-23T06:09:52;95029.94;;;6.77;100.00
23589;BME280;11972;48.078;11.876;2023-02-23T06:13:53;95030.94;;;6.76;100.00
23589;BME280;11972;48.078;11.876;2023-02-23T06:17:53;95035.69;;;6.72;100.00
23589;BME280;11972;48.078;11.876;2023-02-23T06:21:53;95040.13;;;6.72;100.00
23589;BME280;11972;48.078;11.876;2023-02-23T06:25:54;95043.75;;;6.71;100.00
23589;BME280;11972;48.078;11.876;2023-02-23T06:29:54;95040.66;;;6.67;100.00
23589;BME280;11972;48.078;11.876;2023-02-23T06:33:54;95046.56;;;6.61;100.00
23589;BME280;11972;48.078;11.876;2023-02-23T06:37:55;95051.00;;;6.53;100.00
23589;BME280;11972;48.078;11.876;2023-02-23T06:41:56;95049.72;;;6.49;100.00
23589;BME280;11972;48.078;11.876;2023-02-23T06:45:56;95056.94;;;6.46;100.00
23589;BME280;11972;48.078;11.876;2023-02-23T06:49:56;95062.53;;;6.43;100.00
23589;BME280;11972;48.078;11.876;2023-02-23T06:53:58;95059.41;;;6.48;100.00
23589;BME280;11972;48.078;11.876;2023-02-23T06:57:59;95068.06;;;6.49;100.00
23589;BME280;11972;48.078;11.876;2023-02-23T07:01:59;95061.50;;;6.53;100.00
23589;BME280;11972;48.078;11.876;2023-02-23T07:06:00;95068.25;;;6.55;100.00
23589;BME280;11972;48.078;11.876;2023-02-23T07:10:02;95068.22;;;6.63;100.00
23589;BME280;11972;48.078;11.876;2023-02-23T07:14:03;95074.22;;;6.80;100.00
23589;BME280;11972;48.078;11.876;2023-02-23T07:18:04;95068.56;;;7.00;100.00
23589;BME280;11972;48.078;11.876;2023-02-23T07:22:04;95066.97;;;7.21;100.00
23589;BME280;11972;48.078;11.876;2023-02-23T07:26:05;95068.66;;;7.45;100.00
23589;BME280;11972;48.078;11.876;2023-02-23T07:30:06;95075.84;;;7.75;100.00
23589;BME280;11972;48.078;11.876;2023-02-23T07:34:07;95073.19;;;7.97;100.00
23589;BME280;11972;48.078;11.876;2023-02-23T07:38:08;95067.56;;;8.24;100.00
23589;BME280;11972;48.078;11.876;2023-02-23T07:42:08;95063.53;;;8.51;100.00
23589;BME280;11972;48.078;11.876;2023-02-23T07:46:09;95061.19;;;8.70;100.00
23589;BME280;11972;48.078;11.876;2023-02-23T07:50:10;95067.06;;;8.87;100.00
23589;BME280;11972;48.078;11.876;2023-02-23T07:54:11;95072.50;;;9.15;100.00
23589;BME280;11972;48.078;11.876;2023-02-23T07:58:12;95071.38;;;9.39;100.00
23589;BME280;11972;48.078;11.876;2023-02-23T08:02:12;95068.94;;;9.59;100.00
23589;BME280;11972;48.078;11.876;2023-02-23T08:06:14;95074.16;;;9.74;100.00
23589;BME280;11972;48.078;11.876;2023-02-23T08:10:15;95078.94;;;9.85;100.00
23589;BME280;11972;48.078;11.876;2023-02-23T08:14:15;95079.06;;;9.99;100.00
23589;BME280;11972;48.078;11.876;2023-02-23T08:18:15;95079.16;;;10.12;100.00
23589;BME280;11972;48.078;11.876;2023-02-23T08:22:16;95085.69;;;10.16;100.00
23589;BME280;11972;48.078;11.876;2023-02-23T08:26:17;95083.31;;;10.21;100.00
23589;BME280;11972;48.078;11.876;2023-02-23T08:30:18;95081.84;;;10.33;100.00
23589;BME280;11972;48.078;11.876;2023-02-23T08:34:19;95081.13;;;10.46;100.00
23589;BME280;11972;48.078;11.876;2023-02-23T08:38:21;95086.44;;;10.53;100.00
23589;BME280;11972;48.078;11.876;2023-02-23T08:42:22;95080.91;;;10.48;100.00
23589;BME280;11972;48.078;11.876;2023-02-23T08:46:22;95087.81;;;10.49;100.00
23589;BME280;11972;48.078;11.876;2023-02-23T08:50:23;95083.19;;;10.51;100.00
23589;BME280;11972;48.078;11.876;2023-02-23T08:54:24;95078.91;;;10.50;100.00
23589;BME280;11972;48.078;11.876;2023-02-23T08:58:25;95083.59;;;10.54;100.00
23589;BME280;11972;48.078;11.876;2023-02-23T09:02:26;95084.13;;;10.71;100.00
23589;BME280;11972;48.078;11.876;2023-02-23T09:06:27;95081.59;;;10.91;100.00
23589;BME280;11972;48.078;11.876;2023-02-23T09:10:27;95079.69;;;11.13;100.00
23589;BME280;11972;48.078;11.876;2023-02-23T09:14:28;95071.41;;;11.29;100.00
23589;BME280;11972;48.078;11.876;2023-02-23T09:18:29;95069.88;;;11.55;100.00
23589;BME280;11972;48.078;11.876;2023-02-23T09:22:30;95081.91;;;11.64;100.00
23589;BME280;11972;48.078;11.876;2023-02-23T09:26:31;95084.88;;;11.41;100.00
23589;BME280;11972;48.078;11.876;2023-02-23T09:30:32;95081.47;;;11.06;100.00
23589;BME280;11972;48.078;11.876;2023-02-23T09:34:32;95091.72;;;11.22;100.00
23589;BME280;11972;48.078;11.876;2023-02-23T09:38:33;95091.00;;;11.41;100.00
23589;BME280;11972;48.078;11.876;2023-02-23T09:47:01;95090.56;;;11.38;100.00
23589;BME280;11972;48.078;11.876;2023-02-23T09:51:06;95098.72;;;11.36;100.00
23589;BME280;11972;48.078;11.876;2023-02-23T09:55:10;95085.94;;;11.60;100.00
23589;BME280;11972;48.078;11.876;2023-02-23T09:59:17;95090.88;;;11.76;100.00
23589;BME280;11972;48.078;11.876;2023-02-23T10:03:25;95084.34;;;11.72;100.00
23589;BME280;11972;48.078;11.876;2023-02-23T10:07:43;95089.88;;;11.77;100.00
23589;BME280;11972;48.078;11.876;2023-02-23T10:12:02;95095.13;;;11.64;100.00
23589;BME280;11972;48.078;11.876;2023-02-23T10:16:22;95088.59;;;11.60;100.00
23589;BME280;11972;48.078;11.876;2023-02-23T10:20:41;95088.66;;;11.73;100.00
23589;BME280;11972;48.078;11.876;2023-02-23T10:24:49;95098.03;;;11.82;100.00
23589;BME280;11972;48.078;11.876;2023-02-23T10:28:54;95088.72;;;11.86;100.00
23589;BME280;11972;48.078;11.876;2023-02-23T10:37:05;95084.03;;;11.95;100.00
23589;BME280;11972;48.078;11.876;2023-02-23T10:41:06;95089.97;;;12.04;100.00
23589;BME280;11972;48.078;11.876;2023-02-23T10:45:28;95084.47;;;11.99;100.00
23589;BME280;11972;48.078;11.876;2023-02-23T10:49:42;95087.13;;;12.25;100.00
23589;BME280;11972;48.078;11.876;2023-02-23T10:53:43;95075.31;;;12.41;100.00
23589;BME280;11972;48.078;11.876;2023-02-23T10:57:43;95068.78;;;12.63;100.00
23589;BME280;11972;48.078;11.876;2023-02-23T11:01:44;95068.78;;;12.57;100.00
23589;BME280;11972;48.078;11.876;2023-02-23T11:05:46;95069.19;;;12.60;100.00
23589;BME280;11972;48.078;11.876;2023-02-23T11:09:49;95059.78;;;12.78;100.00
23589;BME280;11972;48.078;11.876;2023-02-23T11:13:51;95053.41;;;12.99;100.00
23589;BME280;11972;48.078;11.876;2023-02-23T11:17:55;95058.06;;;13.23;100.00
23589;BME280;11972;48.078;11.876;2023-02-23T11:21:56;95048.19;;;13.44;100.00
23589;BME280;11972;48.078;11.876;2023-02-23T11:26:03;95048.31;;;13.62;100.00
23589;BME280;11972;48.078;11.876;2023-02-23T11:30:05;95045.59;;;13.69;100.00
23589;BME280;11972;48.078;11.876;2023-02-23T11:34:07;95037.16;;;13.78;100.00
23589;BME280;11972;48.078;11.876;2023-02-23T11:38:33;95042.47;;;13.78;100.00
23589;BME280;11972;48.078;11.876;2023-02-23T11:42:34;95032.66;;;13.47;100.00
23589;BME280;11972;48.078;11.876;2023-02-23T11:46:35;95030.91;;;13.34;100.00
23589;BME280;11972;48.078;11.876;2023-02-23T11:50:36;95029.06;;;13.28;100.00
23589;BME280;11972;48.078;11.876;2023-02-23T11:54:37;95026.69;;;13.07;100.00
23589;BME280;11972;48.078;11.876;2023-02-23T11:58:44;95024.72;;;12.82;100.00
23589;BME280;11972;48.078;11.876;2023-02-23T12:02:51;95024.31;;;12.85;100.00
23589;BME280;11972;48.078;11.876;2023-02-23T12:07:16;95017.28;;;13.11;100.00
23589;BME280;11972;48.078;11.876;2023-02-23T12:11:23;95011.06;;;13.44;100.00
23589;BME280;11972;48.078;11.876;2023-02-23T12:20:04;95003.31;;;13.42;100.00
23589;BME280;11972;48.078;11.876;2023-02-23T12:28:32;95001.53;;;13.68;100.00
23589;BME280;11972;48.078;11.876;2023-02-23T12:36:40;94991.19;;;13.53;100.00
23589;BME280;11972;48.078;11.876;2023-02-23T12:40:42;94992.13;;;13.65;100.00
23589;BME280;11972;48.078;11.876;2023-02-23T12:44:48;94993.25;;;13.51;100.00
23589;BME280;11972;48.078;11.876;2023-02-23T13:01:24;94978.63;;;13.98;100.00
23589;BME280;11972;48.078;11.876;2023-02-23T13:05:30;94988.78;;;13.83;100.00
23589;BME280;11972;48.078;11.876;2023-02-23T13:22:32;94967.50;;;14.76;100.00
23589;BME280;11972;48.078;11.876;2023-02-23T13:31:00;94969.19;;;14.27;100.00
23589;BME280;11972;48.078;11.876;2023-02-23T13:35:04;94968.94;;;13.85;100.00
23589;BME280;11972;48.078;11.876;2023-02-23T13:43:43;94965.00;;;13.31;100.00
23589;BME280;11972;48.078;11.876;2023-02-23T13:56:45;94965.81;;;12.80;100.00
23589;BME280;11972;48.078;11.876;2023-02-23T14:01:10;94960.53;;;12.80;100.00
23589;BME280;11972;48.078;11.876;2023-02-23T14:05:23;94962.31;;;12.86;100.00
23589;BME280;11972;48.078;11.876;2023-02-23T14:09:31;94962.22;;;13.13;100.00
23589;BME280;11972;48.078;11.876;2023-02-23T14:13:39;94955.44;;;13.30;100.00
23589;BME280;11972;48.078;11.876;2023-02-23T14:17:40;94960.31;;;13.20;100.00
23589;BME280;11972;48.078;11.876;2023-02-23T14:21:56;94962.69;;;12.97;100.00
23589;BME280;11972;48.078;11.876;2023-02-23T14:26:15;94954.75;;;12.97;100.00
23589;BME280;11972;48.078;11.876;2023-02-23T14:30:20;94965.16;;;12.91;100.00
23589;BME280;11972;48.078;11.876;2023-02-23T14:34:21;94961.72;;;12.84;100.00
23589;BME280;11972;48.078;11.876;2023-02-23T14:38:29;94960.53;;;12.80;100.00
23589;BME280;11972;48.078;11.876;2023-02-23T14:42:30;94961.16;;;12.76;100.00
23589;BME280;11972;48.078;11.876;2023-02-23T14:46:32;94953.63;;;12.66;100.00
23589;BME280;11972;48.078;11.876;2023-02-23T14:50:35;94952.59;;;12.67;100.00
23589;BME280;11972;48.078;11.876;2023-02-23T14:54:37;94955.44;;;12.72;100.00
23589;BME280;11972;48.078;11.876;2023-02-23T14:58:38;94961.56;;;12.66;100.00
23589;BME280;11972;48.078;11.876;2023-02-23T15:02:38;94957.53;;;12.57;100.00
23589;BME280;11972;48.078;11.876;2023-02-23T15:06:39;94956.31;;;12.53;100.00
23589;BME280;11972;48.078;11.876;2023-02-23T15:10:42;94959.59;;;12.41;100.00
23589;BME280;11972;48.078;11.876;2023-02-23T15:14:45;94960.25;;;12.24;100.00
23589;BME280;11972;48.078;11.876;2023-02-23T15:23:33;94966.16;;;12.12;100.00
23589;BME280;11972;48.078;11.876;2023-02-23T15:27:38;94956.81;;;12.10;100.00
23589;BME280;11972;48.078;11.876;2023-02-23T15:31:45;94959.66;;;12.02;100.00
23589;BME280;11972;48.078;11.876;2023-02-23T15:35:54;94955.19;;;11.96;100.00
23589;BME280;11972;48.078;11.876;2023-02-23T15:39:59;94958.00;;;12.01;100.00
23589;BME280;11972;48.078;11.876;2023-02-23T15:44:25;94953.53;;;12.08;100.00
23589;BME280;11972;48.078;11.876;2023-02-23T15:48:28;94949.88;;;12.09;100.00
23589;BME280;11972;48.078;11.876;2023-02-23T15:52:38;94957.22;;;12.07;100.00
23589;BME280;11972;48.078;11.876;2023-02-23T15:56:47;94963.31;;;12.01;100.00
23589;BME280;11972;48.078;11.876;2023-02-23T16:00:54;94951.50;;;11.97;100.00
23589;BME280;11972;48.078;11.876;2023-02-23T16:04:55;94950.72;;;11.89;100.00
23589;BME280;11972;48.078;11.876;2023-02-23T16:09:14;94954.72;;;11.72;100.00
23589;BME280;11972;48.078;11.876;2023-02-23T16:13:23;94955.94;;;11.50;100.00
23589;BME280;11972;48.078;11.876;2023-02-23T16:21:30;94951.63;;;11.15;100.00
23589;BME280;11972;48.078;11.876;2023-02-23T16:25:32;94949.53;;;11.04;100.00
23589;BME280;11972;48.078;11.876;2023-02-23T16:29:38;94950.53;;;10.97;100.00
23589;BME280;11972;48.078;11.876;2023-02-23T16:33:44;94958.03;;;10.86;100.00
23589;BME280;11972;48.078;11.876;2023-02-23T16:41:56;94969.69;;;10.64;100.00
23589;BME280;11972;48.078;11.876;2023-02-23T16:45:57;94961.34;;;10.54;100.00
23589;BME280;11972;48.078;11.876;2023-02-23T16:49:58;94966.78;;;10.46;100.00
23589;BME280;11972;48.078;11.876;2023-02-23T16:53:58;94962.84;;;10.35;100.00
23589;BME280;11972;48.078;11.876;2023-02-23T16:58:01;94962.78;;;10.28;100.00
23589;BME280;11972;48.078;11.876;2023-02-23T17:02:02;94968.81;;;10.22;100.00
23589;BME280;11972;48.078;11.876;2023-02-23T17:06:02;94971.22;;;10.17;100.00
23589;BME280;11972;48.078;11.876;2023-02-23T17:10:03;94972.38;;;10.08;100.00
23589;BME280;11972;48.078;11.876;2023-02-23T17:14:03;94976.41;;;10.04;100.00
23589;BME280;11972;48.078;11.876;2023-02-23T17:18:04;94982.06;;;10.01;100.00
23589;BME280;11972;48.078;11.876;2023-02-23T17:22:05;94978.38;;;9.95;100.00
23589;BME280;11972;48.078;11.876;2023-02-23T17:26:09;94986.81;;;9.84;100.00
23589;BME280;11972;48.078;11.876;2023-02-23T17:30:11;94992.50;;;9.59;100.00
23589;BME280;11972;48.078;11.876;2023-02-23T17:34:12;94988.88;;;9.24;100.00
23589;BME280;11972;48.078;11.876;2023-02-23T17:38:12;94991.97;;;8.91;100.00
23589;BME280;11972;48.078;11.876;2023-02-23T17:42:14;94992.72;;;8.56;100.00
23589;BME280;11972;48.078;11.876;2023-02-23T17:46:15;94983.38;;;8.24;100.00
23589;BME280;11972;48.078;11.876;2023-02-23T17:50:16;94985.78;;;7.95;100.00
23589;BME280;11972;48.078;11.876;2023-02-23T17:54:19;94989.63;;;7.70;100.00
23589;BME280;11972;48.078;11.876;2023-02-23T17:58:19;94983.22;;;7.50;100.00
23589;BME280;11972;48.078;11.876;2023-02-23T18:02:20;94984.50;;;7.31;100.00
23589;BME280;11972;48.078;11.876;2023-02-23T18:06:21;94986.41;;;7.14;100.00
23589;BME280;11972;48.078;11.876;2023-02-23T18:10:21;94988.16;;;6.99;100.00
23589;BME280;11972;48.078;11.876;2023-02-23T18:14:24;94992.81;;;6.88;100.00
23589;BME280;11972;48.078;11.876;2023-02-23T18:18:25;94995.22;;;6.67;100.00
23589;BME280;11972;48.078;11.876;2023-02-23T18:22:25;95007.09;;;6.46;100.00
23589;BME280;11972;48.078;11.876;2023-02-23T18:26:26;95002.41;;;6.26;100.00
23589;BME280;11972;48.078;11.876;2023-02-23T18:30:26;95005.56;;;5.96;100.00
23589;BME280;11972;48.078;11.876;2023-02-23T18:34:28;95004.41;;;5.75;100.00
23589;BME280;11972;48.078;11.876;2023-02-23T18:38:32;95011.63;;;5.56;100.00
23589;BME280;11972;48.078;11.876;2023-02-23T18:42:33;95001.66;;;5.35;100.00
23589;BME280;11972;48.078;11.876;2023-02-23T18:46:34;95009.50;;;5.27;100.00
23589;BME280;11972;48.078;11.876;2023-02-23T18:50:35;95011.13;;;5.20;100.00
23589;BME280;11972;48.078;11.876;2023-02-23T18:54:36;95006.84;;;5.11;100.00
23589;BME280;11972;48.078;11.876;2023-02-23T18:58:37;95003.88;;;5.06;100.00
23589;BME280;11972;48.078;11.876;2023-02-23T19:02:39;95004.53;;;5.00;100.00
23589;BME280;11972;48.078;11.876;2023-02-23T19:06:42;95002.88;;;4.90;100.00
23589;BME280;11972;48.078;11.876;2023-02-23T19:10:43;95001.19;;;4.81;100.00
23589;BME280;11972;48.078;11.876;2023-02-23T19:14:44;95006.41;;;4.73;100.00
23589;BME280;11972;48.078;11.876;2023-02-23T19:18:44;95006.72;;;4.62;100.00
23589;BME280;11972;48.078;11.876;2023-02-23T19:22:46;94999.81;;;4.53;100.00
23589;BME280;11972;48.078;11.876;2023-02-23T19:26:46;95009.09;;;4.47;100.00
23589;BME280;11972;48.078;11.876;2023-02-23T19:30:46;94996.00;;;4.39;100.00
23589;BME280;11972;48.078;11.876;2023-02-23T19:34:48;95001.19;;;4.31;100.00
23589;BME280;11972;48.078;11.876;2023-02-23T19:38:49;94997.72;;;4.22;100.00
23589;BME280;11972;48.078;11.876;2023-02-23T19:42:52;94994.75;;;4.17;100.00
23589;BME280;11972;48.078;11.876;2023-02-23T19:46:53;94996.34;;;4.10;100.00
23589;BME280;11972;48.078;11.876;2023-02-23T19:50:53;95001.00;;;3.98;100.00
23589;BME280;11972;48.078;11.876;2023-02-23T19:55:00;94997.47;;;3.81;100.00
23589;BME280;11972;48.078;11.876;2023-02-23T19:59:09;95003.34;;;3.75;100.00
23589;BME280;11972;48.078;11.876;2023-02-23T20:03:10;95007.22;;;3.71;100.00
23589;BME280;11972;48.078;11.876;2023-02-23T20:07:13;95007.00;;;3.64;100.00
23589;BME280;11972;48.078;11.876;2023-02-23T20:11:14;95007.47;;;3.60;100.00
23589;BME280;11972;48.078;11.876;2023-02-23T20:15:14;95009.03;;;3.53;100.00
23589;BME280;11972;48.078;11.876;2023-02-23T20:19:15;95005.38;;;3.45;100.00
23589;BME280;11972;48.078;11.876;2023-02-23T20:23:15;95011.88;;;3.41;100.00
23589;BME280;11972;48.078;11.876;2023-02-23T20:27:15;95010.53;;;3.37;100.00
23589;BME280;11972;48.078;11.876;2023-02-23T20:31:21;95007.72;;;3.31;100.00
23589;BME280;11972;48.078;11.876;2023-02-23T20:35:24;95012.56;;;3.26;100.00
23589;BME280;11972;48.078;11.876;2023-02-23T20:39:25;95015.47;;;3.22;100.00
23589;BME280;11972;48.078;11.876;2023-02-23T20:43:26;95004.97;;;3.14;100.00
23589;BME280;11972;48.078;11.876;2023-02-23T20:47:29;95002.13;;;3.08;100.00
23589;BME280;11972;48.078;11.876;2023-02-23T20:51:32;94998.97;;;3.04;100.00
23589;BME280;11972;48.078;11.876;2023-02-23T20:55:33;95008.59;;;3.04;100.00
23589;BME280;11972;48.078;11.876;2023-02-23T20:59:34;95008.06;;;3.00;100.00
23589;BME280;11972;48.078;11.876;2023-02-23T21:03:35;94995.78;;;2.92;100.00
23589;BME280;11972;48.078;11.876;2023-02-23T21:07:39;95000.78;;;2.86;100.00
23589;BME280;11972;48.078;11.876;2023-02-23T21:11:39;95000.53;;;2.79;100.00
23589;BME280;11972;48.078;11.876;2023-02-23T21:15:43;94991.34;;;2.75;100.00
23589;BME280;11972;48.078;11.876;2023-02-23T21:19:47;94996.88;;;2.72;100.00
23589;BME280;11972;48.078;11.876;2023-02-23T21:23:52;94987.72;;;2.68;100.00
23589;BME280;11972;48.078;11.876;2023-02-23T21:27:52;94984.66;;;2.72;100.00
23589;BME280;11972;48.078;11.876;2023-02-23T21:31:53;94987.03;;;2.84;100.00
23589;BME280;11972;48.078;11.876;2023-02-23T21:35:54;94986.00;;;2.94;100.00
23589;BME280;11972;48.078;11.876;2023-02-23T21:40:04;94987.19;;;3.00;100.00
23589;BME280;11972;48.078;11.876;2023-02-23T21:44:08;94986.09;;;3.03;100.00
23589;BME280;11972;48.078;11.876;2023-02-23T21:48:09;94979.59;;;3.07;100.00
23589;BME280;11972;48.078;11.876;2023-02-23T21:52:10;94986.59;;;3.24;100.00
23589;BME280;11972;48.078;11.876;2023-02-23T21:56:18;94976.06;;;3.52;100.00
23589;BME280;11972;48.078;11.876;2023-02-23T22:00:20;94972.88;;;3.66;100.00
23589;BME280;11972;48.078;11.876;2023-02-23T22:04:20;94974.22;;;3.70;100.00
23589;BME280;11972;48.078;11.876;2023-02-23T22:08:21;94977.22;;;3.75;100.00
23589;BME280;11972;48.078;11.876;2023-02-23T22:12:23;94978.44;;;3.89;100.00
23589;BME280;11972;48.078;11.876;2023-02-23T22:16:30;94966.41;;;3.96;100.00
23589;BME280;11972;48.078;11.876;2023-02-23T22:20:31;94962.63;;;3.98;100.00
23589;BME280;11972;48.078;11.876;2023-02-23T22:24:35;94966.06;;;3.99;100.00
23589;BME280;11972;48.078;11.876;2023-02-23T22:28:36;94950.84;;;3.94;100.00
23589;BME280;11972;48.078;11.876;2023-02-23T22:32:37;94959.66;;;3.93;100.00
23589;BME280;11972;48.078;11.876;2023-02-23T22:36:37;94953.75;;;3.83;100.00
23589;BME280;11972;48.078;11.876;2023-02-23T22:40:38;94956.84;;;3.79;100.00
23589;BME280;11972;48.078;11.876;2023-02-23T22:44:41;94945.09;;;3.83;100.00
23589;BME280;11972;48.078;11.876;2023-02-23T22:48:42;94942.28;;;3.76;100.00
23589;BME280;11972;48.078;11.876;2023-02-23T22:52:46;94937.66;;;3.70;100.00
23589;BME280;11972;48.078;11.876;2023-02-23T22:56:46;94935.50;;;3.65;100.00
23589;BME280;11972;48.078;11.876;2023-02-23T23:00:48;94937.13;;;3.58;100.00